Time;durP1;ratioP1;P1;durP2;ratioP2;P2;SDS_P1;SDS_P2;PMS_P1;PMS_P2;Temp;Humidity;BMP_temperature;BMP_pressure;BME280_temperature;BME280_humidity;BME280_pressure;Samples;Min_cycle;Max_cycle;Signal;HPM_P1;HPM_P2
2021/10/18 00:03:01;;;;;;;29.40;13.23;;;;;;;;;;6272549;22;20216;-91
2021/10/18 00:06:11;;;;;;;34.30;13.20;;;;;;;;;;6274590;22;20224;-92
2021/10/18 00:09:15;;;;;;;31.93;13.27;;;;;;;;;;6275166;22;20177;-91
2021/10/18 00:12:21;;;;;;;123.63;14.90;;;;;;;;;;6271781;22;20213;-91
2021/10/18 00:15:26;;;;;;;48.40;12.50;;;;;;;;;;6274333;22;20162;-90
2021/10/18 00:18:32;;;;;;;28.37;13.23;;;;;;;;;;6273726;22;20245;-91
2021/10/18 00:21:37;;;;;;;29.00;12.27;;;;;;;;;;6272741;22;20193;-91
2021/10/18 00:24:43;;;;;;;30.33;13.73;;;;;;;;;;6274729;22;20260;-91
2021/10/18 00:27:48;;;;;;;32.43;12.60;;;;;;;;;;6273851;22;20174;-91
2021/10/18 00:30:53;;;;;;;23.50;11.37;;;;;;;;;;6273924;22;20154;-90
2021/10/18 00:34:00;;;;;;;24.17;9.93;;;;;;;;;;6274918;22;20181;-92
2021/10/18 00:37:05;;;;;;;26.33;11.13;;;;;;;;;;6271701;22;20240;-91
2021/10/18 00:40:11;;;;;;;24.37;10.57;;;;;;;;;;6272483;22;20154;-91
2021/10/18 00:43:16;;;;;;;26.73;11.20;;;;;;;;;;6271986;22;20202;-91
2021/10/18 00:46:22;;;;;;;30.80;11.40;;;;;;;;;;6271625;22;20169;-90
2021/10/18 00:49:30;;;;;;;23.40;11.50;;;;;;;;;;6273001;22;20165;-91
2021/10/18 00:52:35;;;;;;;27.70;11.13;;;;;;;;;;6272935;22;20241;-92
2021/10/18 00:55:40;;;;;;;37.43;11.87;;;;;;;;;;6270590;22;20310;-91
2021/10/18 00:58:45;;;;;;;22.33;11.60;;;;;;;;;;6273537;22;20173;-91
2021/10/18 01:01:52;;;;;;;23.60;11.93;;;;;;;;;;6272504;22;20202;-92
2021/10/18 01:04:59;;;;;;;22.03;10.93;;;;;;;;;;6274865;22;20166;-91
2021/10/18 01:08:04;;;;;;;19.83;10.10;;;;;;;;;;6274401;22;20671;-92
2021/10/18 01:11:10;;;;;;;29.77;11.40;;;;;;;;;;6274179;22;20166;-91
2021/10/18 01:14:15;;;;;;;25.57;11.33;;;;;;;;;;6275365;22;20153;-92
2021/10/18 01:17:21;;;;;;;25.63;11.20;;;;;;;;;;6273316;22;20152;-92
2021/10/18 01:20:42;;;;;;;22.37;10.27;;;;;;;;;;6275401;22;20200;-90
2021/10/18 01:23:47;;;;;;;25.03;10.47;;;;;;;;;;6274745;22;20198;-91
2021/10/18 01:26:53;;;;;;;20.20;10.13;;;;;;;;;;6272833;22;20296;-92
2021/10/18 01:29:58;;;;;;;21.27;10.33;;;;;;;;;;6273331;22;20170;-93
2021/10/18 01:33:03;;;;;;;19.60;9.70;;;;;;;;;;6288573;22;20173;-91
2021/10/18 01:36:10;;;;;;;17.33;9.47;;;;;;;;;;6291132;22;20194;-91
2021/10/18 01:39:15;;;;;;;21.37;10.67;;;;;;;;;;6289942;22;20234;-91
2021/10/18 01:42:20;;;;;;;15.80;9.17;;;;;;;;;;6288990;22;20209;-91
2021/10/18 01:45:26;;;;;;;18.93;10.13;;;;;;;;;;6289826;22;20150;-92
2021/10/18 01:48:31;;;;;;;20.67;9.93;;;;;;;;;;6288079;22;20166;-92
2021/10/18 01:51:39;;;;;;;18.40;9.73;;;;;;;;;;6290439;22;20145;-91
2021/10/18 01:54:43;;;;;;;22.27;10.30;;;;;;;;;;6291034;22;20161;-92
2021/10/18 01:57:49;;;;;;;20.33;10.33;;;;;;;;;;6291032;22;20533;-91
2021/10/18 02:00:54;;;;;;;21.23;9.63;;;;;;;;;;6273544;22;20161;-91
2021/10/18 02:04:00;;;;;;;19.10;9.97;;;;;;;;;;6290079;22;20205;-92
2021/10/18 02:07:06;;;;;;;19.63;9.73;;;;;;;;;;6289987;22;20226;-92
2021/10/18 02:10:12;;;;;;;20.10;9.80;;;;;;;;;;6292161;22;20162;-91
2021/10/18 02:13:18;;;;;;;18.60;9.60;;;;;;;;;;6291523;22;20602;-92
2021/10/18 02:16:23;;;;;;;19.70;9.67;;;;;;;;;;6291855;22;20166;-92
2021/10/18 02:19:28;;;;;;;15.90;8.97;;;;;;;;;;6290293;22;20162;-91
2021/10/18 02:22:34;;;;;;;18.67;8.93;;;;;;;;;;6290168;22;20189;-93
2021/10/18 02:25:39;;;;;;;17.17;8.57;;;;;;;;;;6291643;22;20259;-91
2021/10/18 02:28:45;;;;;;;18.17;9.03;;;;;;;;;;6291037;22;20162;-91
2021/10/18 02:31:50;;;;;;;18.83;9.13;;;;;;;;;;6289811;22;20196;-91
2021/10/18 02:34:56;;;;;;;17.97;9.13;;;;;;;;;;6291225;22;20230;-91
2021/10/18 02:38:03;;;;;;;16.77;9.30;;;;;;;;;;6290797;22;20158;-91
2021/10/18 02:41:08;;;;;;;18.67;9.33;;;;;;;;;;6289805;22;20193;-91
2021/10/18 02:44:13;;;;;;;15.53;8.53;;;;;;;;;;6290891;22;20193;-91
2021/10/18 02:47:18;;;;;;;15.60;9.20;;;;;;;;;;6291263;22;20165;-91
2021/10/18 02:50:23;;;;;;;20.20;8.77;;;;;;;;;;6291543;22;20166;-91
2021/10/18 02:53:30;;;;;;;20.47;9.50;;;;;;;;;;6292513;22;20173;-92
2021/10/18 02:56:35;;;;;;;16.30;9.17;;;;;;;;;;6290394;22;20173;-91
2021/10/18 02:59:41;;;;;;;16.57;8.77;;;;;;;;;;6293686;22;20149;-91
2021/10/18 03:02:46;;;;;;;15.50;8.60;;;;;;;;;;6292158;22;20181;-91
2021/10/18 03:05:52;;;;;;;16.77;8.90;;;;;;;;;;6291338;22;20201;-91
2021/10/18 03:08:59;;;;;;;16.43;8.17;;;;;;;;;;6291483;22;20178;-90
2021/10/18 03:12:05;;;;;;;18.37;8.93;;;;;;;;;;6291835;22;20209;-91
2021/10/18 03:15:10;;;;;;;15.90;8.33;;;;;;;;;;6291624;22;20153;-91
2021/10/18 03:18:15;;;;;;;17.10;8.80;;;;;;;;;;6292812;22;20202;-91
2021/10/18 03:21:21;;;;;;;18.13;8.87;;;;;;;;;;6292172;22;20161;-91
2021/10/18 03:24:27;;;;;;;17.17;9.23;;;;;;;;;;6292794;22;20245;-90
2021/10/18 03:27:32;;;;;;;18.47;9.17;;;;;;;;;;6291464;22;20165;-91
2021/10/18 03:30:39;;;;;;;19.23;10.07;;;;;;;;;;6292783;22;20169;-92
2021/10/18 03:33:44;;;;;;;16.83;9.00;;;;;;;;;;6295015;22;20174;-92
2021/10/18 03:36:49;;;;;;;19.43;9.23;;;;;;;;;;6294803;22;20640;-91
2021/10/18 03:39:55;;;;;;;16.03;8.80;;;;;;;;;;6296340;22;20150;-91
2021/10/18 03:43:01;;;;;;;15.93;8.87;;;;;;;;;;6295551;22;20189;-90
2021/10/18 03:46:06;;;;;;;21.40;9.20;;;;;;;;;;6295319;22;20165;-91
2021/10/18 03:49:11;;;;;;;17.87;9.13;;;;;;;;;;6295250;22;20165;-92
2021/10/18 03:52:18;;;;;;;16.93;9.07;;;;;;;;;;6293787;22;20162;-92
2021/10/18 03:55:25;;;;;;;19.20;9.90;;;;;;;;;;6294828;22;20169;-91
2021/10/18 03:58:30;;;;;;;20.33;9.27;;;;;;;;;;6294291;22;20174;-91
2021/10/18 04:01:52;;;;;;;16.97;9.43;;;;;;;;;;6294593;22;20178;-91
2021/10/18 04:04:57;;;;;;;15.30;8.67;;;;;;;;;;6293535;22;20162;-90
2021/10/18 04:08:02;;;;;;;20.27;9.70;;;;;;;;;;6290907;22;20221;-90
2021/10/18 04:11:09;;;;;;;17.33;9.63;;;;;;;;;;6292519;22;20153;-91
2021/10/18 04:14:14;;;;;;;20.87;9.43;;;;;;;;;;6293103;22;20200;-90
2021/10/18 04:17:19;;;;;;;22.07;9.77;;;;;;;;;;6292519;22;20280;-89
2021/10/18 04:20:24;;;;;;;22.80;10.70;;;;;;;;;;6292164;22;20716;-91
2021/10/18 04:23:30;;;;;;;18.90;9.70;;;;;;;;;;6291154;22;20197;-90
2021/10/18 04:26:36;;;;;;;17.93;9.10;;;;;;;;;;6293116;22;20181;-88
2021/10/18 04:29:42;;;;;;;19.17;10.40;;;;;;;;;;6292408;22;20157;-91
2021/10/18 04:32:47;;;;;;;20.20;9.60;;;;;;;;;;6291313;22;20336;-90
2021/10/18 04:35:52;;;;;;;18.67;10.03;;;;;;;;;;6293240;22;20169;-90
2021/10/18 04:38:57;;;;;;;17.90;9.57;;;;;;;;;;6293777;22;20161;-90
2021/10/18 04:42:03;;;;;;;23.13;11.77;;;;;;;;;;6292283;22;20212;-90
2021/10/18 04:45:10;;;;;;;20.03;10.47;;;;;;;;;;6291474;22;20597;-90
2021/10/18 04:48:16;;;;;;;18.63;9.40;;;;;;;;;;6292622;22;20162;-91
2021/10/18 04:51:21;;;;;;;17.03;9.40;;;;;;;;;;6293446;22;20154;-90
2021/10/18 04:54:27;;;;;;;15.60;9.03;;;;;;;;;;6291518;22;20165;-90
2021/10/18 04:57:33;;;;;;;18.33;8.83;;;;;;;;;;6293141;22;20602;-90
2021/10/18 05:00:42;;;;;;;14.70;8.17;;;;;;;;;;6291630;22;20162;-92
2021/10/18 05:03:47;;;;;;;15.30;8.13;;;;;;;;;;6294683;22;20294;-91
2021/10/18 05:10:42;;;;;;;19.53;8.03;;;;;;;;;;6298470;22;20162;-91
2021/10/18 05:13:54;;;;;;;17.07;8.23;;;;;;;;;;6295522;22;20154;-91
2021/10/18 05:16:59;;;;;;;15.67;7.90;;;;;;;;;;6296431;22;20154;-91
2021/10/18 05:20:05;;;;;;;12.53;7.60;;;;;;;;;;6296059;22;20203;-90
2021/10/18 05:23:11;;;;;;;14.60;7.13;;;;;;;;;;6296511;22;20197;-90
2021/10/18 05:26:16;;;;;;;13.97;7.50;;;;;;;;;;6294993;22;20161;-91
2021/10/18 05:29:28;;;;;;;13.23;7.00;;;;;;;;;;6296073;22;20651;-90
2021/10/18 05:32:33;;;;;;;10.40;6.77;;;;;;;;;;6298529;22;20235;-90
2021/10/18 05:38:58;;;;;;;11.57;6.90;;;;;;;;;;6297531;22;20605;-90
2021/10/18 05:42:04;;;;;;;13.43;7.30;;;;;;;;;;6295343;22;20219;-91
2021/10/18 05:45:11;;;;;;;18.67;7.87;;;;;;;;;;6295645;22;20177;-91
2021/10/18 05:48:16;;;;;;;11.53;6.97;;;;;;;;;;6296090;22;20185;-90
2021/10/18 05:51:24;;;;;;;13.90;6.50;;;;;;;;;;6294662;22;20170;-91
2021/10/18 05:54:30;;;;;;;14.10;7.10;;;;;;;;;;6294222;22;20169;-92
2021/10/18 05:57:45;;;;;;;13.67;7.70;;;;;;;;;;6293090;22;20266;-91
2021/10/18 06:00:53;;;;;;;14.07;7.03;;;;;;;;;;6293345;22;20161;-91
2021/10/18 06:03:59;;;;;;;15.00;6.80;;;;;;;;;;6296647;22;20236;-91
2021/10/18 06:07:06;;;;;;;12.00;7.17;;;;;;;;;;6295756;22;20173;-91
2021/10/18 06:10:12;;;;;;;14.53;7.30;;;;;;;;;;6293370;22;20167;-91
2021/10/18 06:13:17;;;;;;;12.80;6.97;;;;;;;;;;6291998;22;20498;-90
2021/10/18 06:16:24;;;;;;;20.93;8.33;;;;;;;;;;6292738;22;20181;-90
2021/10/18 06:19:29;;;;;;;16.77;7.40;;;;;;;;;;6294384;22;20197;-90
2021/10/18 06:22:36;;;;;;;16.20;7.90;;;;;;;;;;6293814;22;20193;-91
2021/10/18 06:25:41;;;;;;;11.73;7.07;;;;;;;;;;6293984;22;20234;-92
2021/10/18 06:28:50;;;;;;;16.17;7.10;;;;;;;;;;6297156;22;20195;-92
2021/10/18 06:31:57;;;;;;;18.80;7.23;;;;;;;;;;6296475;22;20264;-92
2021/10/18 06:35:02;;;;;;;13.50;7.13;;;;;;;;;;6296964;22;20185;-92
2021/10/18 06:38:13;;;;;;;12.73;6.83;;;;;;;;;;6296180;22;20178;-91
2021/10/18 06:41:19;;;;;;;14.57;7.43;;;;;;;;;;6293273;22;20243;-91
2021/10/18 06:44:24;;;;;;;13.13;7.57;;;;;;;;;;6293959;22;20236;-90
2021/10/18 06:47:31;;;;;;;12.43;6.97;;;;;;;;;;6292641;22;20189;-90
2021/10/18 06:50:36;;;;;;;13.40;7.27;;;;;;;;;;6291897;22;20217;-90
2021/10/18 06:53:53;;;;;;;16.63;7.40;;;;;;;;;;6289426;22;20188;-91
2021/10/18 06:56:58;;;;;;;14.47;7.37;;;;;;;;;;6290896;22;20174;-90
2021/10/18 07:00:04;;;;;;;13.00;7.10;;;;;;;;;;6291843;22;20161;-90
2021/10/18 07:03:11;;;;;;;13.30;7.27;;;;;;;;;;6294459;22;20170;-90
2021/10/18 07:06:16;;;;;;;18.67;7.90;;;;;;;;;;6294784;22;20161;-92
2021/10/18 07:09:24;;;;;;;17.37;7.63;;;;;;;;;;6290390;22;20174;-91
2021/10/18 07:12:29;;;;;;;13.50;7.57;;;;;;;;;;6291662;22;20291;-91
2021/10/18 07:15:34;;;;;;;11.33;6.63;;;;;;;;;;6291856;22;20291;-91
2021/10/18 07:18:41;;;;;;;11.20;6.13;;;;;;;;;;6292852;22;20170;-92
2021/10/18 07:21:47;;;;;;;13.63;7.40;;;;;;;;;;6292802;22;20202;-91
2021/10/18 07:24:53;;;;;;;13.77;7.20;;;;;;;;;;6291778;22;20213;-91
2021/10/18 07:27:58;;;;;;;17.70;8.82;;;;;;;;;;6294402;22;20503;-91
2021/10/18 07:31:03;;;;;;;13.90;7.57;;;;;;;;;;6292677;22;20170;-91
2021/10/18 07:34:15;;;;;;;14.13;7.23;;;;;;;;;;6276304;22;20205;-91
2021/10/18 07:37:26;;;;;;;14.18;7.22;;;;;;;;;;6277928;22;20166;-92
2021/10/18 07:40:33;;;;;;;14.00;6.87;;;;;;;;;;6277745;22;20166;-91
2021/10/18 07:43:38;;;;;;;35.90;16.47;;;;;;;;;;6273446;22;20194;-91
2021/10/18 07:46:45;;;;;;;19.53;10.63;;;;;;;;;;6276150;22;20154;-90
2021/10/18 07:49:54;;;;;;;19.97;10.73;;;;;;;;;;6274953;22;20176;-90
2021/10/18 07:52:59;;;;;;;16.53;8.20;;;;;;;;;;6274650;22;20185;-91
2021/10/18 07:56:04;;;;;;;12.77;7.53;;;;;;;;;;6274785;22;20173;-90
2021/10/18 07:59:16;;;;;;;16.75;7.45;;;;;;;;;;6273950;22;20213;-90
2021/10/18 08:02:24;;;;;;;16.63;8.13;;;;;;;;;;6256443;22;20158;-90
2021/10/18 08:05:31;;;;;;;17.07;8.33;;;;;;;;;;6276757;22;20631;-90
2021/10/18 08:08:44;;;;;;;12.75;7.57;;;;;;;;;;6278341;22;20150;-91
2021/10/18 08:11:50;;;;;;;16.57;8.20;;;;;;;;;;6277463;22;20170;-91
2021/10/18 08:14:58;;;;;;;14.65;8.60;;;;;;;;;;6274885;22;20174;-91
2021/10/18 08:18:03;;;;;;;18.98;9.55;;;;;;;;;;6277236;22;20240;-92
2021/10/18 08:21:10;;;;;;;16.27;8.40;;;;;;;;;;6277041;22;20165;-91
2021/10/18 08:24:15;;;;;;;16.45;8.82;;;;;;;;;;6274963;22;20201;-91
2021/10/18 08:27:20;;;;;;;17.02;8.50;;;;;;;;;;6277041;22;20169;-91
2021/10/18 08:30:27;;;;;;;20.08;8.88;;;;;;;;;;6275679;22;20234;-92
2021/10/18 08:33:33;;;;;;;18.17;9.98;;;;;;;;;;6247615;22;20150;-90
2021/10/18 08:37:02;;;;;;;19.20;9.60;;;;;;;;;;6248462;23;20170;-90
2021/10/18 08:40:11;;;;;;;24.90;11.43;;;;;;;;;;6243528;23;20182;-90
2021/10/18 08:43:30;;;;;;;22.90;12.00;;;;;;;;;;6229134;22;20242;-89
2021/10/18 08:46:36;;;;;;;23.23;12.63;;;;;;;;;;6245832;22;20170;-90
2021/10/18 08:49:41;;;;;;;24.45;12.90;;;;;;;;;;6246563;23;20216;-90
2021/10/18 08:56:08;;;;;;;29.85;14.43;;;;;;;;;;6247877;22;20162;-90
2021/10/18 08:59:20;;;;;;;31.05;15.32;;;;;;;;;;6247881;22;20170;-91
2021/10/18 09:02:43;;;;;;;44.60;16.63;;;;;;;;;;6242501;22;20182;-90
2021/10/18 09:05:51;;;;;;;31.38;15.90;;;;;;;;;;6243970;23;20190;-90
2021/10/18 09:09:04;;;;;;;29.83;14.52;;;;;;;;;;6243955;23;20194;-91
2021/10/18 09:12:23;;;;;;;35.50;15.45;;;;;;;;;;6242798;22;20182;-91
2021/10/18 09:15:28;;;;;;;28.85;15.18;;;;;;;;;;6224154;22;20497;-93
2021/10/18 09:18:33;;;;;;;34.53;15.65;;;;;;;;;;6239957;23;20228;-91
2021/10/18 09:21:40;;;;;;;34.03;16.45;;;;;;;;;;6241279;23;20166;-90
2021/10/18 09:24:48;;;;;;;41.50;16.45;;;;;;;;;;6242560;22;20249;-92
2021/10/18 09:28:08;;;;;;;34.20;16.00;;;;;;;;;;6244118;22;20181;-90
2021/10/18 09:31:17;;;;;;;34.58;15.95;;;;;;;;;;6250636;22;20318;-91
2021/10/18 09:37:42;;;;;;;35.78;16.55;;;;;;;;;;6272319;22;20185;-90
2021/10/18 09:40:49;;;;;;;34.35;16.10;;;;;;;;;;6273576;22;20173;-90
2021/10/18 09:43:59;;;;;;;30.35;15.23;;;;;;;;;;6274739;22;20169;-91
2021/10/18 09:47:18;;;;;;;31.98;15.07;;;;;;;;;;6273270;22;20170;-91
2021/10/18 10:53:01;;;;;;;26.35;14.10;;;;;;;;;;6295943;22;20193;-90
2021/10/18 10:56:19;;;;;;;32.65;16.02;;;;;;;;;;6293771;22;20495;-90
2021/10/18 10:59:30;;;;;;;32.50;14.95;;;;;;;;;;6294875;22;20165;-91
2021/10/18 11:02:37;;;;;;;27.40;13.80;;;;;;;;;;6294885;22;20217;-90
2021/10/18 11:05:57;;;;;;;29.35;16.08;;;;;;;;;;6291212;22;20189;-92
2021/10/18 11:12:25;;;;;;;29.92;15.18;;;;;;;;;;6294554;22;20225;-91
2021/10/18 11:15:31;;;;;;;27.70;14.95;;;;;;;;;;6296629;22;20170;-91
2021/10/18 11:18:37;;;;;;;28.40;14.32;;;;;;;;;;6295383;22;20166;-90
2021/10/18 11:21:44;;;;;;;26.92;14.18;;;;;;;;;;6295938;22;20204;-91
2021/10/18 11:24:50;;;;;;;31.10;17.08;;;;;;;;;;6295031;22;20216;-90
2021/10/18 11:31:18;;;;;;;25.25;14.38;;;;;;;;;;6295057;22;20189;-92
2021/10/18 11:41:51;;;;;;;28.40;14.85;;;;;;;;;;6293929;22;20170;-91
2021/10/18 11:45:06;;;;;;;29.20;15.27;;;;;;;;;;6279413;22;20269;-92
2021/10/18 11:48:21;;;;;;;29.08;14.10;;;;;;;;;;6277630;22;20265;-91
2021/10/18 11:51:29;;;;;;;26.25;14.65;;;;;;;;;;6276615;22;20181;-92
2021/10/18 11:57:55;;;;;;;25.73;14.07;;;;;;;;;;6278468;22;20161;-90
2021/10/18 12:14:59;;;;;;;26.40;14.55;;;;;;;;;;6221286;22;20243;-92
2021/10/18 12:18:08;;;;;;;28.98;14.65;;;;;;;;;;6234004;23;20187;-91
2021/10/18 12:21:15;;;;;;;25.88;13.48;;;;;;;;;;6234152;23;20170;-91
2021/10/18 12:24:20;;;;;;;25.08;13.75;;;;;;;;;;6234358;23;20154;-92
2021/10/18 12:27:28;;;;;;;26.10;13.65;;;;;;;;;;6231773;23;20171;-90
2021/10/18 12:30:44;;;;;;;24.60;12.82;;;;;;;;;;6232302;23;20549;-91
2021/10/18 12:34:00;;;;;;;27.05;13.10;;;;;;;;;;6232343;23;20175;-93
2021/10/18 12:37:09;;;;;;;25.55;13.57;;;;;;;;;;6238914;23;20239;-89
2021/10/18 12:40:20;;;;;;;26.65;13.52;;;;;;;;;;6235192;23;20175;-92
2021/10/18 12:43:28;;;;;;;22.40;12.98;;;;;;;;;;6233260;23;20194;-91
2021/10/18 12:46:34;;;;;;;28.83;13.45;;;;;;;;;;6231585;22;20195;-91
2021/10/18 12:56:57;;;;;;;23.48;12.77;;;;;;;;;;6218926;22;20175;-89
2021/10/18 13:00:07;;;;;;;25.40;12.73;;;;;;;;;;6233146;22;20183;-91
2021/10/18 13:03:18;;;;;;;23.52;13.38;;;;;;;;;;6235559;23;20606;-90
2021/10/18 13:06:26;;;;;;;24.25;12.60;;;;;;;;;;6231772;22;20191;-91
2021/10/18 13:09:31;;;;;;;21.90;12.43;;;;;;;;;;6240737;22;20250;-91
2021/10/18 13:12:38;;;;;;;25.77;13.02;;;;;;;;;;6232604;23;20170;-89
2021/10/18 13:15:44;;;;;;;23.42;13.10;;;;;;;;;;6233698;22;20514;-90
2021/10/18 13:18:51;;;;;;;24.20;12.18;;;;;;;;;;6233054;23;20166;-91
2021/10/18 13:22:06;;;;;;;26.33;13.68;;;;;;;;;;6232071;23;20171;-91
2021/10/18 13:25:12;;;;;;;25.02;11.77;;;;;;;;;;6247942;22;20177;-91
2021/10/18 13:28:17;;;;;;;28.67;12.73;;;;;;;;;;6249241;22;20167;-90
2021/10/18 13:31:22;;;;;;;21.13;11.48;;;;;;;;;;6228491;22;20175;-91
2021/10/18 13:34:27;;;;;;;30.17;11.77;;;;;;;;;;6228086;22;20167;-91
2021/10/18 13:37:42;;;;;;;19.95;11.60;;;;;;;;;;6228696;23;20261;-92
2021/10/18 13:40:47;;;;;;;22.08;11.90;;;;;;;;;;6228719;23;20170;-89
2021/10/18 13:43:53;;;;;;;21.58;12.02;;;;;;;;;;6229043;22;20211;-92
2021/10/18 13:46:59;;;;;;;20.30;11.18;;;;;;;;;;6229522;23;20203;-92
2021/10/18 13:50:18;;;;;;;20.83;11.50;;;;;;;;;;6231954;22;20183;-91
2021/10/18 13:53:54;;;;;;;20.77;11.10;;;;;;;;;;6229267;22;20588;-92
2021/10/18 13:57:01;;;;;;;20.45;10.05;;;;;;;;;;6229145;22;20182;-89
2021/10/18 14:00:07;;;;;;;19.88;10.82;;;;;;;;;;6247775;23;20172;-92
2021/10/18 14:03:19;;;;;;;22.83;11.77;;;;;;;;;;6229858;23;20178;-91
2021/10/18 14:06:24;;;;;;;21.30;11.27;;;;;;;;;;6229622;23;20264;-91
2021/10/18 14:09:42;;;;;;;20.08;10.85;;;;;;;;;;6256538;22;20175;-91
2021/10/18 14:12:56;;;;;;;18.95;10.60;;;;;;;;;;6234412;23;20207;-91
2021/10/18 14:16:01;;;;;;;22.92;10.90;;;;;;;;;;6236443;22;20219;-89
2021/10/18 14:19:07;;;;;;;20.70;11.23;;;;;;;;;;6230931;23;20171;-90
2021/10/18 14:22:14;;;;;;;22.67;11.73;;;;;;;;;;6247652;22;20492;-90
2021/10/18 14:25:21;;;;;;;17.65;10.43;;;;;;;;;;6231810;23;20190;-91
2021/10/18 14:28:28;;;;;;;23.08;11.82;;;;;;;;;;6229220;23;20171;-91
2021/10/18 14:31:37;;;;;;;19.15;10.88;;;;;;;;;;6245339;22;20171;-91
2021/10/18 14:34:46;;;;;;;21.55;11.18;;;;;;;;;;6233971;23;20195;-90
2021/10/18 14:37:53;;;;;;;20.13;11.00;;;;;;;;;;6231174;22;20147;-93
2021/10/18 14:40:59;;;;;;;22.88;11.45;;;;;;;;;;6231199;22;20155;-92
2021/10/18 14:44:09;;;;;;;23.75;11.65;;;;;;;;;;6230851;22;20179;-92
2021/10/18 14:47:15;;;;;;;23.05;11.52;;;;;;;;;;6248675;23;20614;-91
2021/10/18 14:53:39;;;;;;;22.75;10.98;;;;;;;;;;6230015;22;20158;-90
2021/10/18 14:56:45;;;;;;;22.92;12.23;;;;;;;;;;6232066;22;20163;-92
2021/10/18 14:59:53;;;;;;;21.60;11.82;;;;;;;;;;6230016;23;20170;-90
2021/10/18 15:02:58;;;;;;;22.30;11.98;;;;;;;;;;6229071;23;20503;-91
2021/10/18 15:06:03;;;;;;;19.08;11.05;;;;;;;;;;6232568;22;20260;-90
2021/10/18 15:09:10;;;;;;;18.95;10.75;;;;;;;;;;6232844;23;20194;-91
2021/10/18 15:12:22;;;;;;;19.23;11.55;;;;;;;;;;6213303;23;20163;-91
2021/10/18 15:15:32;;;;;;;21.85;11.52;;;;;;;;;;6231013;22;20171;-92
2021/10/18 15:18:38;;;;;;;23.48;12.27;;;;;;;;;;6213715;23;20215;-91
2021/10/18 15:21:44;;;;;;;22.55;11.57;;;;;;;;;;6231266;22;20167;-91
2021/10/18 15:24:49;;;;;;;25.30;12.30;;;;;;;;;;6210721;22;20170;-91
2021/10/18 15:27:54;;;;;;;22.83;11.73;;;;;;;;;;6210381;22;20198;-91
2021/10/18 15:31:03;;;;;;;43.65;12.25;;;;;;;;;;6211273;23;20514;-90
2021/10/18 15:34:08;;;;;;;29.27;13.50;;;;;;;;;;6210306;23;20168;-90
2021/10/18 15:37:13;;;;;;;27.92;15.15;;;;;;;;;;6230746;22;20236;-91
2021/10/18 15:40:19;;;;;;;24.75;12.68;;;;;;;;;;6230387;22;20163;-91
2021/10/18 15:43:24;;;;;;;26.65;13.20;;;;;;;;;;6211739;23;20163;-91
2021/10/18 15:46:31;;;;;;;30.33;15.30;;;;;;;;;;6211705;22;20178;-91
2021/10/18 15:49:37;;;;;;;44.65;18.70;;;;;;;;;;6214108;23;20548;-93
2021/10/18 15:52:44;;;;;;;33.05;16.08;;;;;;;;;;6214639;22;20163;-91
2021/10/18 15:55:59;;;;;;;27.75;13.32;;;;;;;;;;6236513;22;20194;-90
2021/10/18 15:59:12;;;;;;;63.08;28.88;;;;;;;;;;6215599;22;20207;-91
2021/10/18 16:02:19;;;;;;;23.20;12.80;;;;;;;;;;6218569;22;20208;-91
2021/10/18 16:05:25;;;;;;;24.77;12.90;;;;;;;;;;6218063;23;20235;-91
2021/10/18 16:08:31;;;;;;;22.35;12.45;;;;;;;;;;6216093;23;20170;-90
2021/10/18 16:11:36;;;;;;;26.88;12.98;;;;;;;;;;6215745;23;20166;-92
2021/10/18 16:14:42;;;;;;;28.98;14.68;;;;;;;;;;6214758;23;20252;-90
2021/10/18 16:17:49;;;;;;;55.08;23.15;;;;;;;;;;6215707;22;20198;-90
2021/10/18 16:20:56;;;;;;;62.78;30.27;;;;;;;;;;6217211;22;20222;-89
2021/10/18 16:24:04;;;;;;;31.42;13.98;;;;;;;;;;6216473;23;20623;-91
2021/10/18 16:27:10;;;;;;;28.70;14.57;;;;;;;;;;6232382;22;20199;-89
2021/10/18 16:33:39;;;;;;;31.55;14.07;;;;;;;;;;6216494;22;20172;-90
2021/10/18 16:40:04;;;;;;;31.25;13.05;;;;;;;;;;6217200;23;20226;-89
2021/10/18 23:01:12;;;;;;;28.83;13.10;;;;;;;;;;6295817;22;20209;-91
2021/10/18 23:04:18;;;;;;;25.53;12.73;;;;;;;;;;6280332;22;20209;-89
2021/10/18 23:07:25;;;;;;;29.57;13.20;;;;;;;;;;6281175;22;20193;-90
2021/10/18 23:10:31;;;;;;;24.30;11.80;;;;;;;;;;6282472;22;20215;-90
2021/10/18 23:20:02;;;;;;;31.13;13.27;;;;;;;;;;6249895;22;20198;-90
2021/10/18 23:23:08;;;;;;;27.50;12.97;;;;;;;;;;6251716;23;20177;-92
2021/10/18 23:26:14;;;;;;;26.40;12.63;;;;;;;;;;6268933;22;20213;-89
2021/10/18 23:29:20;;;;;;;30.90;13.40;;;;;;;;;;6280971;22;20161;-91
2021/10/18 23:32:27;;;;;;;27.67;12.83;;;;;;;;;;6281791;22;20162;-91
2021/10/18 23:35:38;;;;;;;25.23;12.40;;;;;;;;;;6281719;22;20169;-90
2021/10/18 23:38:44;;;;;;;27.17;12.87;;;;;;;;;;6281042;22;20177;-93
2021/10/18 23:41:49;;;;;;;25.50;12.17;;;;;;;;;;6279356;22;20173;-92
2021/10/18 23:44:54;;;;;;;25.40;12.53;;;;;;;;;;6280389;22;20154;-90
2021/10/18 23:48:01;;;;;;;25.33;13.00;;;;;;;;;;6283393;22;20181;-90
2021/10/18 23:51:10;;;;;;;39.40;12.37;;;;;;;;;;6283838;22;20162;-91
2021/10/18 23:54:17;;;;;;;29.60;13.20;;;;;;;;;;6283899;22;20215;-90
2021/10/18 23:57:23;;;;;;;26.57;12.53;;;;;;;;;;6282913;22;20169;-90
